Time;durP1;ratioP1;P1;durP2;ratioP2;P2;SDS_P1;SDS_P2;PMS_P1;PMS_P2;Temp;Humidity;BMP_temperature;BMP_pressure;BME280_temperature;BME280_humidity;BME280_pressure;Samples;Min_cycle;Max_cycle;Signal;HPM_P1;HPM_P2
2022/04/19 00:00:48;;;;;;;3.20;2.50;;;;;;;7.15;56.38;100199.66;5069495;28;20048;-79
2022/04/19 00:03:16;;;;;;;4.13;3.00;;;;;;;7.12;56.12;100203.88;5069018;28;20056;-80
2022/04/19 00:05:44;;;;;;;3.85;2.85;;;;;;;7.07;56.33;100193.66;5071413;28;20048;-80
2022/04/19 00:08:12;;;;;;;4.25;3.00;;;;;;;7.04;56.47;100190.69;5070354;28;20064;-81
2022/04/19 00:10:41;;;;;;;4.50;2.80;;;;;;;6.99;56.74;100187.97;5069081;28;20473;-80
2022/04/19 00:13:13;;;;;;;3.47;2.40;;;;;;;6.95;56.41;100189.69;5069669;28;20055;-79
2022/04/19 00:15:40;;;;;;;4.20;2.50;;;;;;;6.93;56.33;100183.63;5068602;28;20053;-79
2022/04/19 00:18:10;;;;;;;4.88;2.88;;;;;;;6.88;56.10;100188.09;5069240;28;20055;-80
2022/04/19 00:20:42;;;;;;;3.92;2.72;;;;;;;6.81;56.53;100193.19;5068784;28;20068;-80
2022/04/19 00:23:12;;;;;;;4.25;3.08;;;;;;;6.75;56.84;100188.81;5068823;28;20424;-80
2022/04/19 00:25:41;;;;;;;3.80;2.65;;;;;;;6.74;56.63;100187.19;5068826;28;20059;-80
2022/04/19 00:28:08;;;;;;;4.18;2.88;;;;;;;6.71;57.54;100185.00;5068602;28;20052;-81
2022/04/19 00:30:37;;;;;;;3.55;2.83;;;;;;;6.69;56.82;100184.47;5068385;28;20048;-79
2022/04/19 00:33:10;;;;;;;5.03;3.20;;;;;;;6.68;56.68;100188.38;5069222;28;20197;-81
2022/04/19 00:35:38;;;;;;;3.60;2.70;;;;;;;6.65;56.53;100188.94;5069452;28;20413;-80
2022/04/19 00:38:06;;;;;;;4.43;2.55;;;;;;;6.61;57.17;100179.59;5069763;28;20060;-81
2022/04/19 00:40:34;;;;;;;4.72;2.70;;;;;;;6.58;57.43;100183.78;5067707;28;20147;-81
2022/04/19 00:43:02;;;;;;;5.10;3.30;;;;;;;6.52;57.27;100170.31;5068026;28;20067;-80
2022/04/19 00:45:34;;;;;;;4.70;2.80;;;;;;;6.48;57.30;100172.81;5067124;28;20044;-80
2022/04/19 00:48:02;;;;;;;4.93;2.95;;;;;;;6.45;56.94;100176.19;5069015;28;20041;-81
2022/04/19 00:50:31;;;;;;;3.78;2.97;;;;;;;6.40;57.56;100166.00;5069499;28;20049;-81
2022/04/19 00:53:00;;;;;;;4.82;3.08;;;;;;;6.38;57.45;100173.75;5066571;28;20060;-80
2022/04/19 00:55:27;;;;;;;3.92;3.25;;;;;;;6.33;57.56;100165.53;5069116;28;20056;-80
2022/04/19 00:57:56;;;;;;;4.07;2.88;;;;;;;6.30;57.92;100160.59;5069569;28;20052;-80
2022/04/19 01:00:27;;;;;;;4.28;2.92;;;;;;;6.30;57.59;100161.41;5068733;28;20052;-80
2022/04/19 01:02:55;;;;;;;4.35;2.92;;;;;;;6.28;57.70;100152.59;5069458;28;20056;-81
2022/04/19 01:05:22;;;;;;;4.60;3.53;;;;;;;6.28;57.28;100157.28;5070553;28;20056;-81
2022/04/19 01:07:51;;;;;;;4.43;3.05;;;;;;;6.25;58.21;100155.91;5072857;28;20040;-81
2022/04/19 01:10:19;;;;;;;5.30;3.20;;;;;;;6.23;57.34;100149.03;5071054;28;20118;-79
2022/04/19 01:15:33;;;;;;;4.57;3.10;;;;;;;6.19;57.50;100140.50;5076298;28;20052;-80
2022/04/19 01:18:01;;;;;;;4.57;3.60;;;;;;;6.15;58.11;100150.50;5070790;28;20051;-79
2022/04/19 01:20:30;;;;;;;4.07;3.28;;;;;;;6.12;58.02;100145.56;5070760;28;20063;-81
2022/04/19 01:23:00;;;;;;;4.80;3.30;;;;;;;6.14;58.40;100142.50;5069830;28;20056;-78
2022/04/19 01:25:27;;;;;;;5.05;2.95;;;;;;;6.14;58.96;100150.81;5068465;28;20083;-79
2022/04/19 01:27:55;;;;;;;4.45;2.80;;;;;;;6.04;58.92;100151.72;5070908;28;20049;-78
2022/04/19 01:30:22;;;;;;;3.63;2.90;;;;;;;6.02;59.08;100145.66;5070658;28;21949;-80
2022/04/19 01:32:49;;;;;;;3.58;3.05;;;;;;;5.98;59.13;100147.38;5070725;28;20421;-80
2022/04/19 01:35:18;;;;;;;4.15;2.97;;;;;;;5.98;59.35;100147.38;5070724;28;20060;-80
2022/04/19 01:37:47;;;;;;;5.15;2.92;;;;;;;5.96;59.22;100141.31;5069660;28;20045;-79
2022/04/19 01:40:17;;;;;;;4.03;2.88;;;;;;;5.94;58.90;100146.28;5071283;28;21008;-80
2022/04/19 01:42:45;;;;;;;;;;;;;;;5.86;59.12;100140.28;5072230;28;20048;-79
2022/04/19 01:45:13;;;;;;;6.35;2.90;;;;;;;5.83;59.04;100134.50;5070190;28;19936;-79
2022/04/19 01:47:41;;;;;;;4.93;3.08;;;;;;;5.81;58.97;100128.44;5071169;28;20651;-80
2022/04/19 01:50:10;;;;;;;3.58;3.00;;;;;;;5.77;59.34;100135.66;5070706;28;20048;-78
2022/04/19 01:52:37;;;;;;;5.25;3.25;;;;;;;5.68;59.70;100132.69;5074366;28;20505;-80
2022/04/19 01:55:08;;;;;;;5.03;3.15;;;;;;;5.70;59.70;100133.22;5071638;28;20052;-79
2022/04/19 01:57:37;;;;;;;3.60;3.03;;;;;;;5.67;59.77;100129.13;5068508;28;20474;-79
2022/04/19 02:00:06;;;;;;;4.70;3.17;;;;;;;5.65;60.02;100134.09;5067940;28;20427;-79
2022/04/19 02:02:33;;;;;;;3.93;2.87;;;;;;;5.66;59.82;100132.16;5071520;28;20064;-79
2022/04/19 02:05:01;;;;;;;4.15;2.70;;;;;;;5.66;59.71;100130.22;5069519;28;20490;-79
2022/04/19 02:07:31;;;;;;;3.45;2.45;;;;;;;5.68;59.45;100129.94;5070723;28;20067;-79
2022/04/19 02:09:59;;;;;;;4.10;2.97;;;;;;;5.65;59.58;100125.81;5070698;28;20075;-79
2022/04/19 02:12:28;;;;;;;4.65;3.10;;;;;;;5.63;59.90;100130.81;5071182;28;20056;-80
2022/04/19 02:14:56;;;;;;;4.18;3.28;;;;;;;5.63;59.41;100127.22;5068899;28;20404;-79
2022/04/19 02:17:28;;;;;;;4.88;3.22;;;;;;;5.59;59.69;100126.97;5072627;28;20067;-78
2022/04/19 02:20:00;;;;;;;4.53;3.38;;;;;;;5.57;60.01;100125.63;5073256;28;20056;-79
2022/04/19 02:22:31;;;;;;;4.10;2.92;;;;;;;5.54;59.84;100123.41;5073619;28;20057;-79
2022/04/19 02:24:59;;;;;;;3.92;2.83;;;;;;;5.50;60.13;100125.94;5073781;28;20051;-79
2022/04/19 02:27:28;;;;;;;3.78;2.70;;;;;;;5.49;59.72;100125.13;5071710;28;21327;-80
2022/04/19 02:29:56;;;;;;;3.80;2.50;;;;;;;5.47;59.95;100121.81;5074552;28;20393;-80
2022/04/19 02:32:24;;;;;;;4.13;3.00;;;;;;;5.42;60.49;100123.81;5073192;28;20473;-80
2022/04/19 02:34:52;;;;;;;3.65;2.85;;;;;;;5.38;60.63;100123.56;5073369;28;20052;-80
2022/04/19 02:37:20;;;;;;;4.60;3.10;;;;;;;5.37;60.77;100123.84;5071546;28;20056;-80
2022/04/19 02:39:48;;;;;;;4.38;2.83;;;;;;;5.33;61.34;100129.09;5071394;28;20052;-79
2022/04/19 02:42:15;;;;;;;3.15;2.28;;;;;;;5.34;60.92;100132.72;5072138;28;20063;-79
2022/04/19 02:44:43;;;;;;;4.30;2.90;;;;;;;5.36;60.72;100131.31;5073068;28;20139;-80
2022/04/19 02:47:15;;;;;;;4.22;2.63;;;;;;;5.35;60.66;100128.81;5074230;28;20036;-80
2022/04/19 02:49:45;;;;;;;3.97;2.70;;;;;;;5.36;60.54;100133.25;5079267;28;20064;-80
2022/04/19 02:52:13;;;;;;;4.30;2.80;;;;;;;5.34;60.24;100130.78;5079585;28;20095;-79
2022/04/19 02:54:40;;;;;;;4.05;2.90;;;;;;;5.32;60.14;100130.22;5079563;28;20055;-79
2022/04/19 02:57:07;;;;;;;3.95;2.75;;;;;;;5.29;60.22;100134.41;5080638;28;20053;-80
2022/04/19 02:59:35;;;;;;;4.55;2.83;;;;;;;5.23;59.98;100141.06;5079873;28;20059;-80
2022/04/19 03:02:05;;;;;;;4.10;2.60;;;;;;;5.18;60.54;100132.00;5080819;28;20056;-80
2022/04/19 03:04:34;;;;;;;5.32;2.80;;;;;;;5.17;60.60;100130.34;5080667;28;20052;-80
2022/04/19 03:07:01;;;;;;;5.32;2.72;;;;;;;5.15;60.99;100130.63;5080707;28;20073;-80
2022/04/19 03:09:28;;;;;;;4.25;2.63;;;;;;;5.15;61.06;100129.81;5080196;28;20048;-80
2022/04/19 03:11:56;;;;;;;4.13;3.08;;;;;;;5.12;60.84;100142.22;5079229;28;20060;-79
2022/04/19 03:14:23;;;;;;;4.35;2.80;;;;;;;5.13;61.18;100132.03;5080194;28;20429;-80
2022/04/19 03:16:50;;;;;;;4.15;3.03;;;;;;;5.13;60.95;100138.38;5081005;28;20053;-81
2022/04/19 03:19:18;;;;;;;4.13;2.75;;;;;;;5.09;61.16;100135.34;5070730;28;20063;-80
2022/04/19 03:21:46;;;;;;;4.22;3.38;;;;;;;5.08;60.83;100138.38;5061239;28;20053;-80
2022/04/19 03:29:43;;;;;;;3.80;2.90;;;;;;;5.04;61.12;100129.88;5082329;28;20064;-80
2022/04/19 03:32:11;;;;;;;4.15;2.85;;;;;;;5.01;60.92;100132.38;5079788;28;20416;-80
2022/04/19 03:34:39;;;;;;;4.80;3.38;;;;;;;4.97;61.06;100136.81;5079880;28;20061;-80
2022/04/19 03:37:08;;;;;;;5.32;3.05;;;;;;;4.92;61.17;100128.59;5079256;28;20053;-81
2022/04/19 03:39:35;;;;;;;3.95;2.80;;;;;;;4.89;61.10;100121.69;5079875;28;20409;-80
2022/04/19 03:42:03;;;;;;;3.83;2.60;;;;;;;4.86;61.62;100134.13;5081080;28;20055;-80
2022/04/19 03:44:31;;;;;;;3.28;2.33;;;;;;;4.84;61.55;100136.34;5081074;28;20052;-80
2022/04/19 03:47:10;;;;;;;4.32;2.67;;;;;;;4.81;61.83;100123.13;5080805;28;20428;-80
2022/04/19 03:49:38;;;;;;;3.25;2.40;;;;;;;4.81;61.57;100125.88;5080861;28;20481;-80
2022/04/19 03:52:08;;;;;;;3.60;2.80;;;;;;;4.79;61.61;100121.75;5081219;28;20063;-80
2022/04/19 03:54:38;;;;;;;4.03;2.92;;;;;;;4.73;61.63;100123.72;5080671;28;20768;-80
2022/04/19 03:57:08;;;;;;;6.38;3.92;;;;;;;4.70;61.46;100126.22;5079967;28;20405;-79
2022/04/19 03:59:38;;;;;;;4.82;3.03;;;;;;;4.62;62.13;100131.22;5080186;28;20503;-79
2022/04/19 04:02:05;;;;;;;4.70;3.25;;;;;;;4.59;61.96;100125.44;5080846;28;20052;-80
2022/04/19 04:04:35;;;;;;;5.70;2.33;;;;;;;4.60;61.85;100125.16;5081028;28;20056;-80
2022/04/19 04:07:04;;;;;;;4.30;3.00;;;;;;;4.58;61.98;100123.81;5061377;28;20382;-80
2022/04/19 04:09:41;;;;;;;5.22;2.90;;;;;;;4.55;62.05;100121.59;5071031;28;20041;-80
2022/04/19 04:12:11;;;;;;;4.20;2.70;;;;;;;4.53;62.39;100121.88;5079692;28;20052;-79
2022/04/19 04:14:40;;;;;;;5.60;3.38;;;;;;;4.55;63.39;100116.88;5080823;28;20123;-80
2022/04/19 04:17:08;;;;;;;4.70;3.30;;;;;;;4.61;64.09;100117.69;5062312;28;20053;-80
2022/04/19 04:19:38;;;;;;;4.80;3.45;;;;;;;4.67;64.23;100124.84;5060729;28;20055;-80
2022/04/19 04:22:07;;;;;;;4.97;3.38;;;;;;;4.71;63.61;100125.13;5076125;28;20071;-80
2022/04/19 04:24:37;;;;;;;4.47;3.28;;;;;;;4.72;63.05;100116.53;5079747;28;20044;-80
2022/04/19 04:27:05;;;;;;;4.55;3.20;;;;;;;4.71;62.59;100123.16;5079898;28;20048;-79
2022/04/19 04:29:32;;;;;;;5.50;3.28;;;;;;;4.70;62.74;100124.25;5078215;28;20049;-80
2022/04/19 04:32:00;;;;;;;4.95;3.20;;;;;;;4.68;62.15;100129.25;5079890;28;20063;-81
2022/04/19 04:34:27;;;;;;;6.82;3.97;;;;;;;4.64;62.36;100129.00;5079330;28;20059;-80
2022/04/19 04:36:56;;;;;;;8.93;5.50;;;;;;;4.62;62.47;100128.47;5079278;28;20413;-81
2022/04/19 04:39:24;;;;;;;6.85;4.05;;;;;;;4.64;61.99;100134.53;5079422;28;20052;-80
2022/04/19 04:41:52;;;;;;;4.95;3.58;;;;;;;4.65;61.91;100135.34;5081290;28;20057;-80
2022/04/19 04:44:20;;;;;;;5.47;3.78;;;;;;;4.63;62.44;100137.56;5098515;28;20055;-80
2022/04/19 04:49:39;;;;;;;3.92;3.20;;;;;;;4.47;62.27;100142.28;5080945;28;20059;-80
2022/04/19 04:52:08;;;;;;;3.78;3.30;;;;;;;4.53;62.67;100143.13;5080760;28;20063;-81
2022/04/19 04:54:38;;;;;;;4.18;3.22;;;;;;;4.57;62.06;100141.44;5079884;28;20052;-80
2022/04/19 04:57:08;;;;;;;4.53;3.38;;;;;;;4.53;62.79;100143.13;5074688;28;20064;-81
2022/04/19 04:59:36;;;;;;;5.55;3.92;;;;;;;4.52;62.70;100141.47;5079773;28;20059;-81
2022/04/19 05:02:04;;;;;;;6.05;4.18;;;;;;;4.52;62.58;100138.72;5077904;28;20047;-80
2022/04/19 05:04:33;;;;;;;5.03;4.00;;;;;;;4.58;62.54;100145.88;5065561;28;20040;-80
2022/04/19 05:07:00;;;;;;;5.13;3.40;;;;;;;4.61;62.52;100159.06;5075101;28;20037;-83
2022/04/19 05:09:27;;;;;;;5.55;3.78;;;;;;;4.63;62.49;100151.34;5081993;28;20049;-83
2022/04/19 05:11:55;;;;;;;6.00;3.90;;;;;;;4.62;62.74;100144.16;5082876;28;20067;-84
2022/04/19 05:14:23;;;;;;;5.80;4.22;;;;;;;4.64;62.67;100147.47;5084576;28;20408;-83
2022/04/19 05:16:51;;;;;;;7.88;4.93;;;;;;;4.64;62.55;100156.59;5078465;28;20056;-82
2022/04/19 05:19:19;;;;;;;6.10;4.20;;;;;;;4.70;62.99;100157.38;5076845;28;20494;-83
2022/04/19 05:21:46;;;;;;;6.97;5.10;;;;;;;4.77;63.16;100146.06;5072879;28;20453;-84
2022/04/19 05:24:14;;;;;;;7.97;4.38;;;;;;;4.80;63.02;100148.22;5078284;28;20048;-84
2022/04/19 05:26:41;;;;;;;6.35;4.63;;;;;;;4.81;63.12;100147.94;5078735;28;20491;-79
2022/04/19 05:29:09;;;;;;;4.72;3.60;;;;;;;4.87;63.43;100144.06;5075435;28;20538;-80
2022/04/19 05:31:37;;;;;;;5.38;4.43;;;;;;;5.01;62.99;100152.50;5075427;28;20052;-80
2022/04/19 05:34:05;;;;;;;7.03;4.30;;;;;;;5.10;63.27;100141.69;5075188;28;20056;-80
2022/04/19 05:36:33;;;;;;;5.53;3.78;;;;;;;5.17;63.16;100144.16;5075304;28;20075;-80
2022/04/19 05:39:00;;;;;;;4.75;3.90;;;;;;;5.27;62.85;100144.06;5075800;28;20059;-80
2022/04/19 05:41:28;;;;;;;6.45;4.18;;;;;;;5.33;63.11;100145.69;5070188;28;20405;-80
2022/04/19 05:43:55;;;;;;;6.50;4.35;;;;;;;5.38;63.28;100144.84;5076921;28;20064;-80
2022/04/19 05:46:22;;;;;;;5.45;4.43;;;;;;;5.48;63.26;100139.19;5076557;28;20063;-79
2022/04/19 05:48:52;;;;;;;4.80;4.03;;;;;;;5.59;63.18;100143.56;5073800;28;20044;-80
2022/04/19 05:51:19;;;;;;;5.68;3.75;;;;;;;5.68;62.86;100144.56;5075658;28;20041;-80
2022/04/19 05:53:46;;;;;;;4.15;3.75;;;;;;;5.79;62.76;100145.28;5079735;28;20044;-80
2022/04/19 05:56:14;;;;;;;6.05;4.15;;;;;;;5.90;62.54;100141.34;5078455;28;20048;-80
2022/04/19 05:58:44;;;;;;;5.45;4.40;;;;;;;6.00;62.03;100150.66;5078921;28;20060;-80
2022/04/19 06:01:11;;;;;;;7.68;4.63;;;;;;;6.14;62.16;100146.09;5077021;28;20697;-80
2022/04/19 06:06:25;;;;;;;6.72;4.20;;;;;;;6.38;61.31;100150.81;5086043;28;20075;-80
2022/04/19 06:08:53;;;;;;;5.60;4.07;;;;;;;6.48;60.59;100148.75;5081751;28;20057;-81
2022/04/19 06:11:21;;;;;;;5.32;4.30;;;;;;;6.60;60.02;100150.28;5082525;28;20068;-80
2022/04/19 06:13:49;;;;;;;6.20;4.72;;;;;;;6.73;59.86;100149.56;5082778;28;20048;-81
2022/04/19 06:16:18;;;;;;;7.93;5.43;;;;;;;6.84;59.89;100147.47;5062461;28;20064;-81
2022/04/19 06:18:45;;;;;;;9.27;5.72;;;;;;;6.95;59.16;100151.75;5062869;28;20075;-80
2022/04/19 06:21:12;;;;;;;8.10;5.90;;;;;;;7.01;59.07;100153.31;5079870;28;20053;-80
2022/04/19 06:23:45;;;;;;;8.52;6.13;;;;;;;7.15;58.37;100152.59;5082446;28;20051;-79
2022/04/19 06:26:13;;;;;;;9.88;6.25;;;;;;;7.25;58.76;100146.91;5081936;28;20048;-81
2022/04/19 06:28:40;;;;;;;9.45;5.97;;;;;;;7.37;59.00;100151.97;5081875;28;20052;-79
2022/04/19 06:31:07;;;;;;;12.57;7.50;;;;;;;7.49;58.60;100146.78;5080826;28;20396;-78
2022/04/19 06:33:36;;;;;;;10.93;7.75;;;;;;;7.64;59.38;100148.47;5082145;28;20048;-79
2022/04/19 06:36:05;;;;;;;11.13;7.18;;;;;;;7.75;59.33;100149.13;5081583;28;20056;-81
2022/04/19 06:38:32;;;;;;;11.13;7.28;;;;;;;7.87;58.95;100146.69;5080931;28;20052;-80
2022/04/19 06:41:01;;;;;;;9.32;7.13;;;;;;;7.95;59.55;100150.72;5079739;28;20060;-81
2022/04/19 06:43:31;;;;;;;9.68;7.03;;;;;;;8.03;59.49;100145.31;5081487;28;20334;-81
2022/04/19 06:45:58;;;;;;;;;;;;;;;8.09;58.67;100144.09;5082380;28;20123;-81
2022/04/19 06:48:26;;;;;;;8.93;6.70;;;;;;;8.19;58.83;100143.06;5081706;28;19920;-80
2022/04/19 06:50:53;;;;;;;8.10;6.25;;;;;;;8.28;58.26;100132.09;5081015;28;20064;-80
2022/04/19 06:53:20;;;;;;;10.82;6.88;;;;;;;8.37;58.04;100141.31;5081851;28;20049;-80
2022/04/19 06:55:48;;;;;;;10.68;6.40;;;;;;;8.46;58.10;100133.97;5076837;28;20477;-80
2022/04/19 06:58:16;;;;;;;7.53;5.82;;;;;;;8.58;58.13;100135.41;5061513;28;20067;-81
2022/04/19 07:00:46;;;;;;;9.77;6.60;;;;;;;8.68;58.47;100132.41;5063262;28;20048;-80
2022/04/19 07:03:14;;;;;;;8.55;6.03;;;;;;;8.84;58.57;100138.44;5081296;28;20167;-80
2022/04/19 07:05:41;;;;;;;7.80;5.90;;;;;;;8.99;58.46;100129.78;5081004;28;20052;-80
2022/04/19 07:08:19;;;;;;;;;;;;;;;;;;;;;
2022/04/19 07:10:47;;;;;;;10.38;6.70;;;;;;;9.35;57.74;100132.56;5075210;28;20059;-78
2022/04/19 07:13:16;;;;;;;8.05;6.28;;;;;;;9.55;57.51;100127.63;5082122;28;20052;-78
2022/04/19 07:15:43;;;;;;;11.68;6.80;;;;;;;9.75;58.12;100129.91;5081367;28;20052;-79
2022/04/19 07:18:10;;;;;;;8.57;6.43;;;;;;;9.96;57.46;100138.53;5080709;28;20053;-79
2022/04/19 07:28:53;;;;;;;8.15;6.40;;;;;;;11.84;53.15;100134.34;5083389;28;20056;-79
2022/04/19 07:31:20;;;;;;;7.65;6.82;;;;;;;13.23;49.35;100127.28;5079115;28;20045;-78
2022/04/19 07:33:48;;;;;;;8.27;6.22;;;;;;;14.75;45.17;100121.09;5059866;28;20049;-79
2022/04/19 07:36:16;;;;;;;8.27;6.07;;;;;;;16.33;39.46;100128.50;5059645;28;20045;-79
2022/04/19 07:38:44;;;;;;;7.95;6.00;;;;;;;18.00;36.52;100115.81;5079140;28;20054;-79
2022/04/19 07:41:11;;;;;;;15.45;8.10;;;;;;;19.46;33.40;100111.72;5080442;28;20056;-79
2022/04/19 07:43:39;;;;;;;8.60;6.07;;;;;;;21.03;30.93;100122.97;5081105;28;20052;-80
2022/04/19 07:46:10;;;;;;;8.00;5.68;;;;;;;22.60;27.67;100109.78;5081053;28;20063;-79
2022/04/19 07:48:38;;;;;;;7.97;5.75;;;;;;;24.06;25.38;100113.44;5082371;28;20049;-79
2022/04/19 07:51:05;;;;;;;9.48;5.40;;;;;;;25.06;23.87;100109.03;5081493;28;20060;-79
2022/04/19 07:53:32;;;;;;;7.47;6.00;;;;;;;26.39;21.68;100107.34;5081104;28;20044;-79
2022/04/19 07:56:00;;;;;;;6.28;5.50;;;;;;;27.49;19.85;100112.38;5081301;28;20054;-78
2022/04/19 07:58:27;;;;;;;6.90;6.20;;;;;;;28.32;18.79;100117.91;5070630;28;20053;-79
2022/04/19 08:00:55;;;;;;;6.25;5.38;;;;;;;29.17;18.21;100109.69;5060995;28;20053;-79
2022/04/19 08:03:24;;;;;;;5.65;5.07;;;;;;;29.91;17.99;100109.59;5061336;28;20505;-79
2022/04/19 08:05:51;;;;;;;6.95;5.43;;;;;;;30.43;17.74;100107.59;5060465;28;20060;-79
2022/04/19 08:08:21;;;;;;;6.43;5.80;;;;;;;31.31;15.80;100099.22;5060680;28;20049;-79
2022/04/19 08:10:48;;;;;;;7.03;5.72;;;;;;;32.01;15.45;100101.19;5060842;28;20072;-79
2022/04/19 08:13:16;;;;;;;6.50;5.90;;;;;;;32.77;14.61;100096.84;5059020;28;20053;-79
2022/04/19 08:15:44;;;;;;;7.20;5.38;;;;;;;33.34;13.81;100099.31;5062168;28;20049;-80
2022/04/19 08:18:14;;;;;;;5.93;5.25;;;;;;;33.66;14.11;100099.94;5061922;28;20469;-79
2022/04/19 08:20:43;;;;;;;5.82;5.22;;;;;;;34.42;13.17;100100.84;5061330;28;20052;-79
2022/04/19 08:23:11;;;;;;;6.00;5.40;;;;;;;34.80;12.45;100101.44;5063014;28;20064;-79
2022/04/19 08:25:40;;;;;;;5.90;5.40;;;;;;;35.30;11.95;100098.84;5081334;28;20052;-79
2022/04/19 08:28:08;;;;;;;5.93;5.43;;;;;;;35.80;11.93;100101.94;5080965;28;20508;-79
2022/04/19 08:30:36;;;;;;;6.30;5.60;;;;;;;35.77;11.17;100097.16;5061223;28;20053;-79
2022/04/19 08:33:03;;;;;;;6.43;5.20;;;;;;;36.07;11.47;100088.44;5061378;28;20482;-78
2022/04/19 08:35:30;;;;;;;5.20;4.70;;;;;;;36.46;11.99;100088.28;5078221;28;20052;-79
2022/04/19 08:37:59;;;;;;;5.17;4.67;;;;;;;37.00;11.03;100091.69;5079682;28;20049;-79
2022/04/19 08:40:27;;;;;;;5.47;4.97;;;;;;;36.71;10.88;100087.63;5080370;28;20067;-79
2022/04/19 08:42:57;;;;;;;5.15;4.65;;;;;;;37.41;10.67;100082.97;5079618;28;20397;-79
2022/04/19 08:45:26;;;;;;;4.93;4.43;;;;;;;36.80;11.60;100095.41;5080294;28;20417;-79
2022/04/19 08:47:54;;;;;;;5.15;4.15;;;;;;;37.37;11.77;100091.09;5081451;28;20052;-79
2022/04/19 08:50:22;;;;;;;4.63;4.20;;;;;;;37.92;11.22;100087.19;5080923;28;20052;-80
2022/04/19 08:57:29;;;;;;;4.47;4.07;;;;;;;37.91;11.28;100091.41;5081172;28;20060;-79
2022/04/19 08:58:26;;;;;;;4.47;4.07;;;;;;;38.47;10.44;100094.00;5083948;28;20064;-79
2022/04/19 09:00:54;;;;;;;4.30;3.92;;;;;;;38.25;10.98;100085.91;5080604;28;20404;-80
2022/04/19 09:03:21;;;;;;;4.73;4.10;;;;;;;38.53;10.99;100091.13;5080341;28;20053;-79
2022/04/19 09:05:54;;;;;;;5.05;4.10;;;;;;;38.65;10.81;100089.09;5080199;28;20470;-79
2022/04/19 09:08:22;;;;;;;4.30;4.00;;;;;;;38.52;11.20;100090.34;5081032;28;20048;-79
2022/04/19 09:11:03;;;;;;;4.20;3.75;;;;;;;39.17;10.59;100080.09;5080615;28;20049;-80
2022/04/19 09:13:31;;;;;;;4.55;4.15;;;;;;;39.33;9.77;100084.38;5081397;28;20083;-79
2022/04/19 09:16:03;;;;;;;;;;;;;;;39.27;9.91;100086.47;5082159;28;20075;-80
2022/04/19 09:18:32;;;;;;;5.40;3.70;;;;;;;39.84;9.06;100091.13;5081566;28;19932;-80
2022/04/19 09:21:00;;;;;;;4.30;3.90;;;;;;;40.15;9.34;100095.13;5081059;28;20056;-80
2022/04/19 09:23:29;;;;;;;4.30;3.90;;;;;;;39.90;9.50;100089.06;5080974;28;20063;-80
2022/04/19 09:25:59;;;;;;;5.72;3.78;;;;;;;39.61;9.35;100089.50;5084745;28;20064;-81
2022/04/19 09:28:28;;;;;;;4.93;4.43;;;;;;;39.55;9.51;100087.38;5085157;28;20048;-81
2022/04/19 09:30:57;;;;;;;4.80;4.10;;;;;;;39.48;9.77;100087.09;5084986;28;20048;-80
2022/04/19 09:33:26;;;;;;;3.92;3.55;;;;;;;39.67;9.60;100081.56;5084057;28;20044;-80
2022/04/19 09:35:55;;;;;;;4.75;3.50;;;;;;;40.09;9.15;100088.50;5078171;28;20061;-80
2022/04/19 09:38:36;;;;;;;4.75;4.20;;;;;;;40.32;9.13;100089.31;5079996;28;20061;-80
2022/04/19 09:41:06;;;;;;;4.28;3.78;;;;;;;40.49;9.03;100081.34;5083135;28;20409;-80
2022/04/19 09:43:34;;;;;;;3.85;3.45;;;;;;;40.36;9.46;100084.81;5083448;28;20063;-80
2022/04/19 09:46:03;;;;;;;4.63;4.22;;;;;;;40.53;8.94;100081.84;5083339;28;20075;-80
2022/04/19 09:48:32;;;;;;;4.00;3.60;;;;;;;40.74;9.60;100070.66;5082877;28;20497;-80
2022/04/19 09:51:03;;;;;;;6.57;4.40;;;;;;;40.70;8.93;100073.03;5083336;28;20060;-80
2022/04/19 09:53:32;;;;;;;4.45;4.05;;;;;;;40.72;9.83;100076.25;5084109;28;20052;-80
2022/04/19 09:56:01;;;;;;;4.72;3.75;;;;;;;41.04;8.97;100081.69;5083910;28;20052;-81
2022/04/19 09:58:30;;;;;;;3.97;3.22;;;;;;;40.94;8.90;100075.34;5084064;28;20130;-80
2022/04/19 10:00:58;;;;;;;4.53;3.22;;;;;;;41.13;8.67;100074.75;5084551;28;20052;-80
2022/04/19 10:08:55;;;;;;;4.60;3.50;;;;;;;40.18;9.32;100077.34;5070015;28;20421;-80
2022/04/19 10:11:22;;;;;;;4.25;3.85;;;;;;;40.48;8.68;100067.25;5063776;28;20413;-80
2022/04/19 10:13:53;;;;;;;5.53;3.90;;;;;;;40.58;9.65;100066.44;5083695;28;20048;-78
2022/04/19 10:16:21;;;;;;;5.03;4.50;;;;;;;40.87;8.26;100072.22;5079845;28;20052;-80
2022/04/19 10:18:54;;;;;;;4.40;4.00;;;;;;;40.93;8.88;100064.22;5081931;28;20053;-82
2022/04/19 10:21:26;;;;;;;4.63;4.13;;;;;;;40.70;8.70;100067.22;5080743;28;20488;-84
2022/04/19 10:24:10;;;;;;;4.53;4.00;;;;;;;40.87;9.14;100063.47;5078994;28;20131;-84
2022/04/19 10:26:45;;;;;;;6.13;4.45;;;;;;;41.21;8.55;100054.56;5081061;28;20048;-82
2022/04/19 10:29:19;;;;;;;4.60;4.10;;;;;;;41.29;9.69;100059.28;5080880;28;20048;-81
2022/04/19 10:31:58;;;;;;;4.57;4.18;;;;;;;41.36;8.81;100063.75;5079294;28;20056;-82
2022/04/19 10:34:28;;;;;;;5.88;4.85;;;;;;;40.86;9.40;100058.94;5079656;28;20538;-87
2022/04/19 10:36:58;;;;;;;4.80;4.30;;;;;;;41.02;9.04;100046.38;5080612;28;20056;-84
2022/04/19 10:39:27;;;;;;;4.22;3.33;;;;;;;41.38;8.18;100052.31;5081631;28;20048;-85
2022/04/19 10:41:59;;;;;;;3.75;2.90;;;;;;;41.56;8.63;100042.09;5079849;28;20059;-82
2022/04/19 10:44:30;;;;;;;10.48;5.47;;;;;;;40.72;7.96;100055.81;5063994;28;20414;-81
2022/04/19 10:47:17;;;;;;;7.10;3.55;;;;;;;40.56;8.74;100047.88;5058179;28;20053;-81
2022/04/19 10:50:02;;;;;;;4.63;3.38;;;;;;;40.46;8.84;100050.28;5059255;28;20052;-81
2022/04/19 10:52:48;;;;;;;4.95;3.92;;;;;;;40.70;9.22;100046.75;5059233;28;20072;-82
2022/04/19 10:55:21;;;;;;;4.07;3.75;;;;;;;41.13;8.62;100034.63;5059243;28;20421;-82
2022/04/19 11:00:45;;;;;;;4.68;4.28;;;;;;;41.72;7.77;100035.34;5060500;28;20064;-82
2022/04/19 11:03:15;;;;;;;4.50;4.10;;;;;;;41.55;8.71;100044.22;5060792;28;20064;-82
2022/04/19 11:05:44;;;;;;;4.65;4.25;;;;;;;41.62;8.66;100039.16;5059472;28;20497;-82
2022/04/19 11:08:33;;;;;;;4.63;4.18;;;;;;;41.87;8.38;100034.94;5059702;28;20049;-82
2022/04/19 11:11:26;;;;;;;4.95;4.55;;;;;;;41.75;8.03;100036.41;5059194;28;20048;-82
2022/04/19 11:14:45;;;;;;;4.55;4.15;;;;;;;41.78;8.39;100035.31;5041177;28;20428;-80
2022/04/19 11:17:22;;;;;;;4.60;4.20;;;;;;;41.82;8.95;100035.81;5059686;28;20053;-81
2022/04/19 11:19:54;;;;;;;5.32;4.82;;;;;;;41.71;8.54;100030.06;5060120;28;20049;-83
2022/04/19 11:22:43;;;;;;;4.90;4.40;;;;;;;41.66;8.05;100028.75;5059672;28;20378;-81
2022/04/19 11:25:11;;;;;;;4.88;4.35;;;;;;;41.69;8.47;100036.44;5059661;28;20060;-80
2022/04/19 11:28:15;;;;;;;4.32;3.80;;;;;;;41.27;9.02;100029.03;5059416;28;20056;-81
2022/04/19 11:30:44;;;;;;;4.18;3.78;;;;;;;41.43;9.22;100025.16;5058748;28;20063;-81
2022/04/19 11:33:22;;;;;;;3.90;3.60;;;;;;;41.54;9.03;100027.25;5059514;28;20061;-81
2022/04/19 11:36:06;;;;;;;4.45;4.03;;;;;;;41.71;9.09;100030.06;5064102;28;20060;-81
2022/04/19 11:38:35;;;;;;;4.15;3.72;;;;;;;41.77;9.03;100016.19;5059285;28;20056;-81
2022/04/19 11:46:47;;;;;;;4.95;3.60;;;;;;;41.44;8.87;100015.06;5063132;28;20064;-81
2022/04/19 11:49:34;;;;;;;4.55;4.07;;;;;;;41.25;8.96;100012.00;5058362;28;20413;-81
2022/04/19 11:52:09;;;;;;;4.68;4.28;;;;;;;41.12;9.02;100021.38;5058594;28;20049;-81
2022/04/19 11:54:36;;;;;;;4.35;3.90;;;;;;;40.90;9.42;100016.44;5063974;28;20052;-81
2022/04/19 11:57:05;;;;;;;4.13;3.58;;;;;;;41.03;9.55;100024.59;5059648;28;20057;-81
2022/04/19 11:59:37;;;;;;;5.15;3.88;;;;;;;41.10;9.44;100018.19;5059578;28;20053;-82
2022/04/19 12:02:12;;;;;;;4.90;3.90;;;;;;;40.46;9.11;100020.28;5059547;28;20053;-81
2022/04/19 12:04:59;;;;;;;4.80;3.47;;;;;;;40.37;9.69;100021.38;5057289;28;20079;-81
2022/04/19 12:07:27;;;;;;;3.43;3.10;;;;;;;40.41;9.89;100018.19;5057359;28;20053;-81
2022/04/19 12:09:57;;;;;;;3.60;3.03;;;;;;;40.44;9.56;100020.81;5059113;28;20471;-81
2022/04/19 12:12:25;;;;;;;2.83;2.50;;;;;;;40.18;9.65;100015.28;5067634;28;20056;-81
2022/04/19 12:14:54;;;;;;;3.53;2.67;;;;;;;40.05;8.92;100015.84;5078479;28;20056;-81
2022/04/19 12:17:22;;;;;;;3.95;2.60;;;;;;;39.49;8.94;100015.81;5078533;28;20057;-81
2022/04/19 12:20:03;;;;;;;2.97;2.30;;;;;;;39.04;9.66;100012.78;5078739;28;20052;-80
2022/04/19 12:22:34;;;;;;;2.72;2.35;;;;;;;38.76;10.01;100014.25;5078782;28;20055;-81
2022/04/19 12:25:03;;;;;;;3.03;2.72;;;;;;;38.61;10.09;100007.84;5078782;28;20068;-82